VRMM/MLE METAR and TAF weather

Enter ICAO airport designator
Station Type Date Time Source
VRMM METAR 2019/02/21 15:00 UTC NOAA

VRMM 211500Z 05013KT 9000 FEW018TCU 29/24 Q1013 NOSIG


Station Type Date Time Source
VRMM Decoded METAR 2019/02/21 15:00 UTC NOAA

Male, Maldives (VRMM) 04-12N 073-32E 2M
Feb 21, 2019 - 10:00 AM EST / 2019.02.21 1500 UTC
Wind: from the NE (050 degrees) at 15 MPH (13 KT):0
Visibility: 5 mile(s):0
Sky conditions: mostly clear
Weather: Towering cumulus clouds observed
Temperature: 84 F (29 C)
Dew Point: 75 F (24 C)
Relative Humidity: 74%
Pressure (altimeter): 29.91 in. Hg (1013 hPa)
ob: VRMM 211500Z 05013KT 9000 FEW018TCU 29/24 Q1013 NOSIG
cycle: 15

Station Type Date Time Source
VRMM TAF 2019/02/21 12:06 UTC NOAA

TAF VRMM 211100Z 2112/2218 07015KT 9000 SCT017TCU
TEMPO 2112/2118 4000 SHRA FEW018CB


Example: see airport list